createdAt,value
2023-04-27T00:00:28.696Z,32.97
2023-04-27T00:01:28.694Z,32.95
2023-04-27T00:02:28.902Z,32.97
2023-04-27T00:03:28.868Z,32.98
2023-04-27T00:04:28.917Z,32.95
2023-04-27T00:05:28.814Z,32.97
2023-04-27T00:06:28.746Z,32.97
2023-04-27T00:07:28.808Z,32.96
2023-04-27T00:08:28.797Z,32.95
2023-04-27T00:09:28.818Z,32.94
2023-04-27T00:10:28.870Z,32.95
2023-04-27T00:11:28.902Z,32.95
2023-04-27T00:12:28.921Z,32.94
2023-04-27T00:13:28.938Z,32.98
2023-04-27T00:14:28.956Z,32.97
2023-04-27T00:15:28.953Z,32.95
2023-04-27T00:16:29.034Z,32.95
2023-04-27T00:17:29.009Z,32.94
2023-04-27T00:18:29.029Z,32.96
2023-04-27T00:19:29.022Z,32.96
2023-04-27T00:20:29.035Z,32.95
2023-04-27T00:21:29.025Z,32.96
2023-04-27T00:22:29.032Z,32.97
2023-04-27T00:23:29.042Z,32.93
2023-04-27T00:24:29.080Z,32.96
2023-04-27T00:25:29.054Z,32.92
2023-04-27T00:26:29.095Z,32.95
2023-04-27T00:27:29.113Z,32.95
2023-04-27T00:28:29.158Z,32.95
2023-04-27T00:29:29.189Z,32.95
2023-04-27T00:30:29.153Z,32.95
2023-04-27T00:31:29.242Z,32.96
2023-04-27T00:32:29.285Z,32.94
2023-04-27T00:33:29.217Z,32.93
2023-04-27T00:34:29.259Z,32.95
2023-04-27T00:35:29.267Z,32.95
2023-04-27T00:36:29.259Z,32.95
2023-04-27T00:37:29.331Z,32.92
2023-04-27T00:38:29.304Z,32.95
2023-04-27T00:39:29.291Z,32.94
2023-04-27T00:40:29.313Z,32.95
2023-04-27T00:41:29.366Z,32.94
2023-04-27T00:42:29.398Z,32.98
2023-04-27T00:43:29.379Z,32.95
2023-04-27T00:44:29.446Z,32.93
2023-04-27T00:45:29.426Z,32.93
2023-04-27T00:46:29.540Z,32.93
2023-04-27T00:47:29.515Z,32.93
2023-04-27T00:48:29.496Z,32.93
2023-04-27T00:49:29.466Z,32.94
2023-04-27T00:50:29.630Z,32.94
2023-04-27T00:51:29.492Z,32.94
2023-04-27T00:52:29.502Z,32.93
2023-04-27T00:53:29.501Z,32.91
2023-04-27T00:54:29.553Z,32.91
2023-04-27T00:55:29.554Z,32.92
2023-04-27T00:56:29.641Z,32.90
2023-04-27T00:57:29.601Z,32.92
2023-04-27T00:58:29.630Z,32.91
2023-04-27T00:59:29.623Z,32.93
2023-04-27T01:00:29.636Z,32.92
2023-04-27T01:01:29.709Z,32.92
2023-04-27T01:02:29.789Z,32.91
2023-04-27T01:03:29.793Z,32.92
2023-04-27T01:04:29.781Z,32.89
2023-04-27T01:05:31.929Z,32.93
2023-04-27T01:06:29.739Z,32.94
2023-04-27T01:07:29.709Z,32.88
2023-04-27T01:08:29.697Z,32.93
2023-04-27T01:09:29.656Z,32.91
2023-04-27T01:10:29.668Z,32.90
2023-04-27T01:11:29.669Z,32.88
2023-04-27T01:12:29.643Z,32.93
2023-04-27T01:13:29.619Z,32.91
2023-04-27T01:14:29.641Z,32.92
2023-04-27T01:15:29.628Z,32.90
2023-04-27T01:16:29.661Z,32.89
2023-04-27T01:17:29.638Z,32.89
2023-04-27T01:18:29.619Z,32.90
2023-04-27T01:19:29.600Z,32.88
2023-04-27T01:20:29.583Z,32.89
2023-04-27T01:21:29.592Z,32.91
2023-04-27T01:22:29.601Z,32.89
2023-04-27T01:23:29.587Z,32.89
2023-04-27T01:24:29.564Z,32.88
2023-04-27T01:25:29.569Z,32.91
2023-04-27T01:26:29.518Z,32.90
2023-04-27T01:27:29.548Z,32.88
2023-04-27T01:28:29.549Z,32.87
2023-04-27T01:29:29.559Z,32.88
2023-04-27T01:30:29.514Z,32.89
2023-04-27T01:31:29.517Z,32.91
2023-04-27T01:32:29.506Z,32.90
2023-04-27T01:33:29.491Z,32.90
2023-04-27T01:34:29.486Z,32.90
2023-04-27T01:35:29.508Z,32.90
2023-04-27T01:36:29.452Z,32.88
2023-04-27T01:37:29.476Z,32.89
2023-04-27T01:38:29.456Z,32.88
2023-04-27T01:39:29.451Z,32.88
2023-04-27T01:40:29.494Z,32.88
2023-04-27T01:41:29.483Z,32.90
2023-04-27T01:42:29.461Z,32.86
2023-04-27T01:43:29.429Z,32.89
2023-04-27T01:44:29.437Z,32.88
2023-04-27T01:45:29.396Z,32.89
2023-04-27T01:46:29.447Z,32.90
2023-04-27T01:47:29.439Z,32.89
2023-04-27T01:48:29.419Z,32.87
2023-04-27T01:49:29.369Z,32.88
2023-04-27T01:50:29.436Z,32.89
2023-04-27T01:51:29.379Z,32.90
2023-04-27T01:52:29.386Z,32.88
2023-04-27T01:53:29.370Z,32.88
2023-04-27T01:54:29.381Z,32.85
2023-04-27T01:55:29.362Z,32.86
2023-04-27T01:56:29.352Z,32.88
2023-04-27T01:57:29.381Z,32.88
2023-04-27T01:58:29.329Z,32.87
2023-04-27T01:59:29.319Z,32.89
2023-04-27T02:00:29.324Z,32.89
2023-04-27T02:01:29.337Z,32.88
2023-04-27T02:02:29.404Z,32.86
2023-04-27T02:03:29.446Z,32.88
2023-04-27T02:04:29.490Z,32.87
2023-04-27T02:05:29.269Z,32.86
2023-04-27T02:06:29.302Z,32.86
2023-04-27T02:07:29.295Z,32.84
2023-04-27T02:08:29.251Z,32.86
2023-04-27T02:09:29.264Z,32.85
2023-04-27T02:10:29.254Z,32.85
2023-04-27T02:11:29.251Z,32.87
2023-04-27T02:12:29.221Z,32.88
2023-04-27T02:13:29.217Z,32.86
2023-04-27T02:14:29.225Z,32.85
2023-04-27T02:15:29.225Z,32.85
2023-04-27T02:16:29.204Z,32.86
2023-04-27T02:17:29.216Z,32.87
2023-04-27T02:18:29.198Z,32.86
2023-04-27T02:19:29.165Z,32.85
2023-04-27T02:20:29.165Z,32.85
2023-04-27T02:21:29.132Z,32.84
2023-04-27T02:22:29.141Z,32.84
2023-04-27T02:23:29.146Z,32.83
2023-04-27T02:24:29.132Z,32.85
2023-04-27T02:25:29.165Z,32.85
2023-04-27T02:26:29.134Z,32.84
2023-04-27T02:27:29.132Z,32.83
2023-04-27T02:28:29.115Z,32.85
2023-04-27T02:29:29.112Z,32.85
2023-04-27T02:30:29.063Z,32.83
2023-04-27T02:31:29.115Z,32.85
2023-04-27T02:32:29.114Z,32.82
2023-04-27T02:33:29.083Z,32.81
2023-04-27T02:34:29.170Z,32.84
2023-04-27T02:35:29.063Z,32.83
2023-04-27T02:36:29.079Z,32.83
2023-04-27T02:37:29.049Z,32.84
2023-04-27T02:38:29.018Z,32.82
2023-04-27T02:39:29.026Z,32.81
2023-04-27T02:40:29.054Z,32.84
2023-04-27T02:41:29.058Z,32.83
2023-04-27T02:42:29.067Z,32.85
2023-04-27T02:43:29.063Z,32.82
2023-04-27T02:44:29.086Z,32.84
2023-04-27T02:45:29.085Z,32.82
2023-04-27T02:46:29.107Z,32.84
2023-04-27T02:47:29.198Z,32.83
2023-04-27T02:48:29.145Z,32.83
2023-04-27T02:49:29.171Z,32.84
2023-04-27T02:50:29.186Z,32.82
2023-04-27T02:51:29.191Z,32.81
2023-04-27T02:52:29.196Z,32.81
2023-04-27T02:53:29.229Z,32.84
2023-04-27T02:54:29.223Z,32.83
2023-04-27T02:55:29.236Z,32.84
2023-04-27T02:56:29.252Z,32.81
2023-04-27T02:57:29.269Z,32.83
2023-04-27T02:58:29.284Z,32.81
2023-04-27T02:59:29.313Z,32.84
2023-04-27T03:00:29.269Z,32.80
2023-04-27T03:01:29.317Z,32.82
2023-04-27T03:02:29.399Z,32.82
2023-04-27T03:03:29.451Z,32.82
2023-04-27T03:04:29.369Z,32.81
2023-04-27T03:05:29.401Z,32.83
2023-04-27T03:06:29.384Z,32.82
2023-04-27T03:07:29.417Z,32.79
2023-04-27T03:08:29.400Z,32.81
2023-04-27T03:09:29.417Z,32.81
2023-04-27T03:10:29.479Z,32.82
2023-04-27T03:11:29.477Z,32.80
2023-04-27T03:12:29.525Z,32.81
2023-04-27T03:13:29.507Z,32.79
2023-04-27T03:14:29.539Z,32.81
2023-04-27T03:15:29.556Z,32.81
2023-04-27T03:16:29.621Z,32.80
2023-04-27T03:17:29.621Z,32.79
2023-04-27T03:18:29.615Z,32.80
2023-04-27T03:19:29.625Z,32.82
2023-04-27T03:20:29.632Z,32.82
2023-04-27T03:21:29.640Z,32.80
2023-04-27T03:22:29.642Z,32.80
2023-04-27T03:23:29.690Z,32.80
2023-04-27T03:24:29.709Z,32.81
2023-04-27T03:25:29.701Z,32.80
2023-04-27T03:26:29.730Z,32.80
2023-04-27T03:27:29.740Z,32.80
2023-04-27T03:28:29.741Z,32.80
2023-04-27T03:29:29.780Z,32.80
2023-04-27T03:30:29.835Z,32.80
2023-04-27T03:31:29.798Z,32.78
2023-04-27T03:32:29.875Z,32.79
2023-04-27T03:33:29.862Z,32.79
2023-04-27T03:34:29.856Z,32.78
2023-04-27T03:35:29.874Z,32.78
2023-04-27T03:36:29.879Z,32.79
2023-04-27T03:37:29.900Z,32.78
2023-04-27T03:38:29.878Z,32.78
2023-04-27T03:39:29.927Z,32.78
2023-04-27T03:40:29.937Z,32.78
2023-04-27T03:41:29.947Z,32.79
2023-04-27T03:42:29.967Z,32.77
2023-04-27T03:43:29.951Z,32.77
2023-04-27T03:44:29.967Z,32.78
2023-04-27T03:45:29.980Z,32.76
2023-04-27T03:46:30.102Z,32.78
2023-04-27T03:47:30.073Z,32.79
2023-04-27T03:48:30.027Z,32.79
2023-04-27T03:49:30.048Z,32.78
2023-04-27T03:50:30.407Z,32.77
2023-04-27T03:51:30.086Z,32.78
2023-04-27T03:52:30.131Z,32.76
2023-04-27T03:53:30.105Z,32.78
2023-04-27T03:54:30.161Z,32.75
2023-04-27T03:55:30.212Z,32.76
2023-04-27T03:56:30.196Z,32.77
2023-04-27T03:57:30.215Z,32.77
2023-04-27T03:58:30.267Z,32.76
2023-04-27T03:59:30.252Z,32.76
2023-04-27T04:00:30.270Z,32.78
2023-04-27T04:01:30.253Z,32.76
2023-04-27T04:02:30.379Z,32.76
2023-04-27T04:03:30.412Z,32.76
2023-04-27T04:04:30.493Z,32.76
2023-04-27T04:05:30.306Z,32.76
2023-04-27T04:06:30.322Z,32.76
2023-04-27T04:07:30.349Z,32.75
2023-04-27T04:08:30.303Z,32.76
2023-04-27T04:09:30.336Z,32.75
2023-04-27T04:10:30.336Z,32.75
2023-04-27T04:11:30.344Z,32.77
2023-04-27T04:12:30.347Z,32.77
2023-04-27T04:13:30.372Z,32.75
2023-04-27T04:14:30.386Z,32.77
2023-04-27T04:15:30.387Z,32.76
2023-04-27T04:16:30.417Z,32.77
2023-04-27T04:17:30.424Z,32.77
2023-04-27T04:18:30.406Z,32.76
2023-04-27T04:19:30.426Z,32.76
2023-04-27T04:20:30.413Z,32.75
2023-04-27T04:21:30.413Z,32.77
2023-04-27T04:22:30.414Z,32.75
2023-04-27T04:23:30.428Z,32.75
2023-04-27T04:24:30.429Z,32.77
2023-04-27T04:25:30.450Z,32.74
2023-04-27T04:26:30.461Z,32.76
2023-04-27T04:27:30.464Z,32.76
2023-04-27T04:28:30.452Z,32.75
2023-04-27T04:29:30.466Z,32.76
2023-04-27T04:30:30.497Z,32.78
2023-04-27T04:31:30.532Z,32.76
2023-04-27T04:32:30.532Z,32.75
2023-04-27T04:33:30.486Z,32.74
2023-04-27T04:34:30.501Z,32.75
2023-04-27T04:35:30.517Z,32.76
2023-04-27T04:36:30.496Z,32.76
2023-04-27T04:37:30.514Z,32.75
2023-04-27T04:38:30.512Z,32.76
2023-04-27T04:39:30.532Z,32.74
2023-04-27T04:40:30.518Z,32.73
2023-04-27T04:41:30.506Z,32.73
2023-04-27T04:42:30.559Z,32.75
2023-04-27T04:43:30.584Z,32.75
2023-04-27T04:44:30.564Z,32.74
2023-04-27T04:45:30.617Z,32.76
2023-04-27T04:46:30.662Z,32.75
2023-04-27T04:47:30.710Z,32.78
2023-04-27T04:48:30.609Z,32.85
2023-04-27T04:49:30.641Z,33.01
2023-04-27T04:50:30.639Z,33.13
2023-04-27T04:51:30.643Z,33.24
2023-04-27T04:52:30.632Z,33.24
2023-04-27T04:53:30.663Z,33.28
2023-04-27T04:54:30.691Z,33.19
2023-04-27T04:55:30.628Z,33.19
2023-04-27T04:56:30.624Z,33.17
2023-04-27T04:57:30.605Z,33.19
2023-04-27T04:58:30.642Z,33.19
2023-04-27T04:59:32.017Z,33.24
2023-04-27T05:00:30.590Z,33.25
2023-04-27T05:01:30.608Z,33.24
2023-04-27T05:02:30.730Z,33.24
2023-04-27T05:03:30.683Z,33.29
2023-04-27T05:04:30.722Z,33.32
2023-04-27T05:05:30.613Z,33.33
2023-04-27T05:06:30.603Z,33.33
2023-04-27T05:07:30.627Z,33.31
2023-04-27T05:08:30.620Z,33.35
2023-04-27T05:09:30.578Z,33.37
2023-04-27T05:10:30.608Z,33.38
2023-04-27T05:11:30.608Z,33.40
2023-04-27T05:12:30.584Z,33.43
2023-04-27T05:13:30.583Z,33.43
2023-04-27T05:14:30.610Z,33.42
2023-04-27T05:15:30.580Z,33.39
2023-04-27T05:16:30.649Z,33.44
2023-04-27T05:17:30.667Z,33.50
2023-04-27T05:18:30.638Z,33.49
2023-04-27T05:19:30.675Z,33.50
2023-04-27T05:20:30.626Z,33.53
2023-04-27T05:21:30.679Z,33.54
2023-04-27T05:22:30.697Z,33.54
2023-04-27T05:23:30.688Z,33.59
2023-04-27T05:24:30.714Z,33.58
2023-04-27T05:25:30.695Z,33.60
2023-04-27T05:26:30.730Z,33.56
2023-04-27T05:27:30.751Z,33.59
2023-04-27T05:28:30.733Z,33.64
2023-04-27T05:29:30.746Z,33.64
2023-04-27T05:30:30.769Z,33.63
2023-04-27T05:31:30.784Z,33.63
2023-04-27T05:32:30.806Z,33.69
2023-04-27T05:33:30.796Z,33.69
2023-04-27T05:34:30.799Z,33.70
2023-04-27T05:35:30.813Z,33.74
2023-04-27T05:36:30.794Z,33.79
2023-04-27T05:37:30.895Z,33.83
2023-04-27T05:38:30.827Z,33.94
2023-04-27T05:39:30.841Z,33.92
2023-04-27T05:40:30.800Z,33.94
2023-04-27T05:41:30.788Z,34.11
2023-04-27T05:42:31.034Z,34.33
2023-04-27T05:43:30.800Z,34.75
2023-04-27T05:44:30.788Z,34.82
2023-04-27T05:45:30.842Z,35.05
2023-04-27T05:46:30.807Z,34.69
2023-04-27T05:47:30.850Z,34.70
2023-04-27T05:48:30.756Z,35.55
2023-04-27T05:49:30.805Z,35.09
2023-04-27T05:50:30.815Z,35.43
2023-04-27T05:51:30.856Z,36.01
2023-04-27T05:52:31.223Z,36.74
2023-04-27T05:53:30.897Z,36.62
2023-04-27T05:54:30.943Z,36.90
2023-04-27T05:55:30.972Z,37.38
2023-04-27T05:56:30.992Z,37.21
2023-04-27T05:57:31.047Z,37.20
2023-04-27T05:58:31.062Z,37.35
2023-04-27T05:59:31.095Z,37.03
2023-04-27T06:00:31.113Z,37.09
2023-04-27T06:01:31.195Z,36.46
2023-04-27T06:02:31.290Z,36.67
2023-04-27T06:03:31.330Z,36.66
2023-04-27T06:04:31.261Z,36.68
2023-04-27T06:05:31.404Z,36.72
2023-04-27T06:06:31.230Z,36.72
2023-04-27T06:07:31.302Z,36.62
2023-04-27T06:08:31.275Z,36.60
2023-04-27T06:09:31.305Z,36.64
2023-04-27T06:10:31.401Z,36.74
2023-04-27T06:11:31.333Z,36.70
2023-04-27T06:12:31.308Z,36.64
2023-04-27T06:13:31.333Z,36.56
2023-04-27T06:14:31.320Z,36.50
2023-04-27T06:15:31.364Z,36.56
2023-04-27T06:16:31.524Z,36.67
2023-04-27T06:17:31.419Z,36.68
2023-04-27T06:18:31.391Z,36.54
2023-04-27T06:19:31.468Z,36.83
2023-04-27T06:20:31.391Z,37.02
2023-04-27T06:21:31.435Z,36.73
2023-04-27T06:22:31.440Z,36.77
2023-04-27T06:23:31.458Z,36.62
2023-04-27T06:24:31.502Z,36.67
2023-04-27T06:25:31.496Z,36.57
2023-04-27T06:26:31.523Z,36.59
2023-04-27T06:27:31.501Z,36.78
2023-04-27T06:28:31.552Z,37.03
2023-04-27T06:29:31.547Z,36.74
2023-04-27T06:30:31.551Z,36.55
2023-04-27T06:31:31.595Z,36.62
2023-04-27T06:32:31.573Z,36.50
2023-04-27T06:33:31.544Z,36.54
2023-04-27T06:34:31.540Z,36.88
2023-04-27T06:35:31.563Z,36.91
2023-04-27T06:36:31.532Z,36.90
2023-04-27T06:37:31.561Z,36.76
2023-04-27T06:38:31.539Z,36.74
2023-04-27T06:39:31.566Z,36.58
2023-04-27T06:40:31.557Z,36.68
2023-04-27T06:41:31.573Z,36.79
2023-04-27T06:42:31.645Z,36.92
2023-04-27T06:43:31.619Z,37.19
2023-04-27T06:44:31.628Z,37.35
2023-04-27T06:45:31.672Z,36.78
2023-04-27T06:46:31.673Z,36.54
2023-04-27T06:49:25.349Z,37.78
2023-04-27T06:50:25.156Z,37.49
2023-04-27T06:51:25.151Z,37.40
2023-04-27T06:52:25.121Z,37.60
2023-04-27T06:53:25.136Z,37.52
2023-04-27T06:54:25.110Z,38.00
2023-04-27T06:55:25.325Z,38.15
2023-04-27T06:56:25.075Z,38.39
2023-04-27T06:57:25.077Z,38.38
2023-04-27T06:58:25.232Z,38.30
2023-04-27T06:59:25.045Z,38.29
2023-04-27T07:00:25.084Z,38.19
2023-04-27T07:01:25.056Z,37.98
2023-04-27T07:02:25.682Z,38.11
2023-04-27T07:03:25.217Z,38.23
2023-04-27T07:04:25.090Z,38.27
2023-04-27T07:05:25.026Z,38.51
2023-04-27T07:06:25.032Z,38.41
2023-04-27T07:07:25.018Z,38.39
2023-04-27T07:08:25.048Z,38.48
2023-04-27T07:09:27.746Z,38.36
2023-04-27T07:10:24.995Z,38.44
2023-04-27T07:11:24.983Z,38.69
2023-04-27T07:12:24.980Z,38.68
2023-04-27T07:13:25.163Z,38.66
2023-04-27T07:14:24.964Z,38.65
2023-04-27T07:15:24.941Z,38.77
2023-04-27T07:16:24.983Z,38.82
2023-04-27T07:17:24.966Z,38.89
2023-04-27T07:18:24.931Z,38.84
2023-04-27T07:19:24.925Z,39.00
2023-04-27T07:20:24.935Z,39.07
2023-04-27T07:21:24.915Z,39.10
2023-04-27T07:22:24.887Z,39.14
2023-04-27T07:23:24.901Z,39.19
2023-04-27T07:24:24.897Z,39.25
2023-04-27T07:25:24.895Z,39.26
2023-04-27T07:26:24.858Z,39.29
2023-04-27T07:27:24.850Z,39.44
2023-04-27T07:28:24.904Z,39.57
2023-04-27T07:29:27.412Z,39.72
2023-04-27T07:30:25.154Z,39.70
2023-04-27T07:31:24.907Z,39.86
2023-04-27T07:32:24.884Z,39.91
2023-04-27T07:33:24.872Z,40.01
2023-04-27T07:34:24.816Z,40.05
2023-04-27T07:35:24.786Z,40.19
2023-04-27T07:36:24.783Z,40.20
2023-04-27T07:37:24.778Z,40.34
2023-04-27T07:38:24.779Z,40.39
2023-04-27T07:39:24.804Z,40.45
2023-04-27T07:40:24.881Z,40.60
2023-04-27T07:41:24.759Z,40.82
2023-04-27T07:42:24.760Z,41.13
2023-04-27T07:43:24.769Z,40.81
2023-04-27T07:44:24.744Z,40.64
2023-04-27T07:45:24.808Z,40.56
2023-04-27T07:46:24.803Z,40.54
2023-04-27T07:47:24.725Z,40.49
2023-04-27T07:48:24.899Z,40.66
2023-04-27T07:49:24.695Z,40.84
2023-04-27T07:50:24.798Z,40.69
2023-04-27T07:51:24.699Z,40.60
2023-04-27T07:52:24.704Z,40.54
2023-04-27T07:53:24.674Z,40.54
2023-04-27T07:54:24.682Z,40.50
2023-04-27T07:55:24.686Z,40.47
2023-04-27T07:56:24.687Z,40.52
2023-04-27T07:57:24.679Z,40.48
2023-04-27T07:58:24.648Z,40.47
2023-04-27T07:59:24.628Z,40.50
2023-04-27T08:00:24.711Z,40.49
2023-04-27T08:01:24.617Z,40.41
2023-04-27T08:02:24.765Z,40.39
2023-04-27T08:03:24.998Z,40.41
2023-04-27T08:04:24.920Z,40.46
2023-04-27T08:05:24.979Z,40.45
2023-04-27T08:06:24.865Z,40.47
2023-04-27T08:07:24.979Z,40.49
2023-04-27T08:08:24.833Z,40.57
2023-04-27T08:09:24.578Z,40.55
2023-04-27T08:10:24.637Z,40.54
2023-04-27T08:11:24.563Z,40.51
2023-04-27T08:12:24.546Z,40.58
2023-04-27T08:13:25.558Z,40.55
2023-04-27T08:14:24.516Z,40.56
2023-04-27T08:15:24.532Z,40.61
2023-04-27T08:16:24.571Z,40.54
2023-04-27T08:17:24.529Z,40.52
2023-04-27T08:18:24.511Z,40.48
2023-04-27T08:19:24.482Z,40.50
2023-04-27T08:20:24.559Z,40.55
2023-04-27T08:21:24.512Z,40.59
2023-04-27T08:22:24.480Z,40.54
2023-04-27T08:23:24.506Z,40.58
2023-04-27T08:24:24.501Z,40.60
2023-04-27T08:25:24.462Z,40.58
2023-04-27T08:26:26.309Z,40.59
2023-04-27T08:27:24.476Z,40.56
2023-04-27T08:28:24.486Z,40.58
2023-04-27T08:29:28.516Z,40.60
2023-04-27T08:30:24.429Z,41.07
2023-04-27T08:31:24.446Z,41.89
2023-04-27T08:32:24.413Z,41.54
2023-04-27T08:33:24.456Z,41.63
2023-04-27T08:34:24.449Z,41.85
2023-04-27T08:35:24.418Z,41.60
2023-04-27T08:36:24.424Z,41.54
2023-04-27T08:37:24.401Z,41.73
2023-04-27T08:38:25.715Z,41.71
2023-04-27T08:39:24.385Z,41.84
2023-04-27T08:40:24.367Z,39.47
2023-04-27T08:41:24.461Z,40.33
2023-04-27T08:42:24.351Z,38.40
2023-04-27T08:43:24.356Z,37.07
2023-04-27T08:44:24.354Z,37.29
2023-04-27T08:45:24.337Z,37.59
2023-04-27T08:46:24.365Z,37.97
2023-04-27T08:47:35.003Z,37.79
2023-04-27T08:48:25.343Z,38.65
2023-04-27T08:49:24.390Z,37.79
2023-04-27T08:50:24.435Z,38.43
2023-04-27T08:51:24.310Z,37.96
2023-04-27T08:52:24.317Z,38.05
2023-04-27T08:53:24.278Z,38.61
2023-04-27T08:54:24.290Z,37.80
2023-04-27T08:55:24.318Z,38.23
2023-04-27T08:56:24.281Z,39.31
2023-04-27T08:57:24.283Z,39.84
2023-04-27T08:58:24.288Z,40.14
2023-04-27T08:59:24.239Z,40.53
2023-04-27T09:00:24.254Z,40.29
2023-04-27T09:01:24.314Z,40.28
2023-04-27T09:02:24.282Z,40.46
2023-04-27T09:03:24.470Z,40.44
2023-04-27T09:04:24.588Z,40.53
2023-04-27T09:05:24.441Z,40.78
2023-04-27T09:06:24.421Z,40.75
2023-04-27T09:07:25.290Z,40.89
2023-04-27T09:08:24.369Z,40.96
2023-04-27T09:09:24.461Z,41.01
2023-04-27T09:10:24.471Z,41.09
2023-04-27T09:11:24.512Z,41.12
2023-04-27T09:12:24.538Z,41.24
2023-04-27T09:13:24.611Z,41.27
2023-04-27T09:14:24.617Z,41.50
2023-04-27T09:15:24.666Z,41.54
2023-04-27T09:16:24.719Z,41.48
2023-04-27T09:17:24.748Z,41.57
2023-04-27T09:18:24.735Z,41.65
2023-04-27T09:19:24.783Z,41.94
2023-04-27T09:20:24.780Z,41.98
2023-04-27T09:21:24.801Z,42.14
2023-04-27T09:22:24.826Z,42.27
2023-04-27T09:23:24.824Z,42.32
2023-04-27T09:24:24.846Z,42.45
2023-04-27T09:25:24.840Z,42.69
2023-04-27T09:26:24.809Z,42.74
2023-04-27T09:27:24.825Z,42.71
2023-04-27T09:28:24.831Z,42.94
2023-04-27T09:29:24.854Z,43.13
2023-04-27T09:30:24.840Z,43.24
2023-04-27T09:31:24.975Z,43.14
2023-04-27T09:32:24.991Z,43.30
2023-04-27T09:33:25.078Z,43.42
2023-04-27T09:34:25.089Z,43.15
2023-04-27T09:35:25.113Z,43.24
2023-04-27T09:36:25.205Z,43.52
2023-04-27T09:37:25.272Z,43.63
2023-04-27T09:38:25.338Z,43.70
2023-04-27T09:39:25.424Z,43.91
2023-04-27T09:40:25.422Z,44.32
2023-04-27T09:41:25.512Z,44.29
2023-04-27T09:42:25.540Z,44.34
2023-04-27T09:43:25.581Z,44.30
2023-04-27T09:44:25.907Z,44.38
2023-04-27T09:45:25.951Z,44.06
2023-04-27T09:46:25.841Z,42.77
2023-04-27T09:47:25.788Z,41.46
2023-04-27T09:48:25.747Z,42.61
2023-04-27T09:49:25.843Z,42.90
2023-04-27T09:50:25.760Z,42.78
2023-04-27T09:51:25.777Z,42.62
2023-04-27T09:52:25.786Z,42.54
2023-04-27T09:53:25.803Z,42.43
2023-04-27T09:54:25.817Z,42.30
2023-04-27T09:55:25.801Z,42.11
2023-04-27T09:56:25.881Z,41.99
2023-04-27T09:57:25.808Z,41.86
2023-04-27T09:58:25.820Z,41.73
2023-04-27T09:59:25.809Z,41.56
2023-04-27T10:00:25.830Z,41.49
2023-04-27T10:01:25.885Z,41.04
2023-04-27T10:02:26.103Z,41.26
2023-04-27T10:03:25.897Z,41.09
2023-04-27T10:04:26.109Z,40.99
2023-04-27T10:05:25.976Z,40.70
2023-04-27T10:06:25.898Z,40.65
2023-04-27T10:07:25.909Z,40.53
2023-04-27T10:08:25.910Z,40.51
2023-04-27T10:09:25.927Z,40.21
2023-04-27T10:10:25.931Z,40.12
2023-04-27T10:11:25.900Z,40.02
2023-04-27T10:12:25.925Z,39.91
2023-04-27T10:13:25.903Z,39.89
2023-04-27T10:14:25.895Z,39.83
2023-04-27T10:15:25.887Z,39.75
2023-04-27T10:16:25.943Z,39.66
2023-04-27T10:17:26.034Z,39.66
2023-04-27T10:18:26.019Z,39.65
2023-04-27T10:19:26.074Z,39.64
2023-04-27T10:20:26.086Z,39.66
2023-04-27T10:21:26.125Z,39.69
2023-04-27T10:22:26.198Z,39.70
2023-04-27T10:23:26.271Z,39.72
2023-04-27T10:24:26.374Z,39.72
2023-04-27T10:25:26.376Z,39.69
2023-04-27T10:26:26.491Z,39.72
2023-04-27T10:27:26.506Z,39.71
2023-04-27T10:28:26.553Z,39.69
2023-04-27T10:29:26.651Z,39.67
2023-04-27T10:30:26.682Z,39.69
2023-04-27T10:31:26.822Z,39.75
2023-04-27T10:32:26.797Z,39.79
2023-04-27T10:33:26.830Z,39.76
2023-04-27T10:34:26.896Z,39.80
2023-04-27T10:35:26.929Z,39.79
2023-04-27T10:36:26.970Z,39.86
2023-04-27T10:37:26.992Z,39.85
2023-04-27T10:38:27.053Z,39.74
2023-04-27T10:39:36.199Z,39.74
2023-04-27T10:40:28.098Z,39.71
2023-04-27T10:41:27.130Z,39.69
2023-04-27T10:42:27.077Z,39.72
2023-04-27T10:43:27.083Z,39.74
2023-04-27T10:44:27.416Z,39.75
2023-04-27T10:45:29.256Z,39.74
2023-04-27T10:46:27.188Z,39.73
2023-04-27T10:47:27.164Z,39.75
2023-04-27T10:48:27.148Z,39.74
2023-04-27T10:49:27.140Z,39.72
2023-04-27T10:50:27.125Z,39.74
2023-04-27T10:51:27.147Z,39.73
2023-04-27T10:52:27.110Z,39.69
2023-04-27T10:53:27.123Z,39.68
2023-04-27T10:54:27.105Z,39.68
2023-04-27T10:55:27.098Z,39.69
2023-04-27T10:56:27.085Z,39.68
2023-04-27T10:57:27.088Z,39.63
2023-04-27T10:58:37.718Z,39.65
2023-04-27T10:59:28.059Z,39.62
2023-04-27T11:00:27.078Z,39.58
2023-04-27T11:01:27.157Z,39.59
2023-04-27T11:02:27.189Z,39.58
2023-04-27T11:03:27.160Z,39.57
2023-04-27T11:04:27.077Z,39.53
2023-04-27T11:05:27.033Z,39.53
2023-04-27T11:06:26.993Z,39.53
2023-04-27T11:07:27.030Z,39.49
2023-04-27T11:08:26.982Z,39.48
2023-04-27T11:09:27.075Z,39.48
2023-04-27T11:10:27.161Z,39.45
2023-04-27T11:11:27.186Z,39.45
2023-04-27T11:12:27.197Z,39.44
2023-04-27T11:13:27.242Z,39.42
2023-04-27T11:14:27.302Z,39.39
2023-04-27T11:15:27.353Z,39.34
2023-04-27T11:16:27.368Z,39.33
2023-04-27T11:17:27.449Z,39.33
2023-04-27T11:18:27.476Z,39.32
2023-04-27T11:19:27.501Z,39.30
2023-04-27T11:20:27.638Z,39.28
2023-04-27T11:21:27.629Z,39.26
2023-04-27T11:22:27.691Z,39.24
2023-04-27T11:23:27.754Z,39.25
2023-04-27T11:24:27.789Z,39.22
2023-04-27T11:25:27.824Z,39.24
2023-04-27T11:26:27.867Z,39.20
2023-04-27T11:27:27.930Z,39.22
2023-04-27T11:28:28.025Z,39.18
2023-04-27T11:29:28.467Z,39.17
2023-04-27T11:30:28.091Z,39.21
2023-04-27T11:31:28.234Z,39.20
2023-04-27T11:32:28.212Z,39.20
2023-04-27T11:33:28.247Z,39.18
2023-04-27T11:34:28.434Z,39.12
2023-04-27T11:35:28.309Z,39.12
2023-04-27T11:36:28.361Z,39.12
2023-04-27T11:37:28.417Z,39.11
2023-04-27T11:38:28.441Z,39.09
2023-04-27T11:39:28.857Z,39.09
2023-04-27T11:40:28.545Z,39.08
2023-04-27T11:41:28.592Z,39.07
2023-04-27T11:42:28.808Z,39.07
2023-04-27T11:43:28.745Z,39.05
2023-04-27T11:44:28.787Z,39.03
2023-04-27T11:45:28.775Z,39.02
2023-04-27T11:46:28.836Z,39.02
2023-04-27T11:47:28.918Z,38.99
2023-04-27T11:48:28.886Z,39.04
2023-04-27T11:49:28.946Z,39.00
2023-04-27T11:50:28.963Z,39.01
2023-04-27T11:51:28.976Z,38.99
2023-04-27T11:52:29.081Z,38.96
2023-04-27T11:53:29.126Z,38.97
2023-04-27T11:54:30.008Z,38.95
2023-04-27T11:55:29.157Z,38.89
2023-04-27T11:56:29.200Z,38.91
2023-04-27T11:57:29.202Z,38.88
2023-04-27T11:58:29.256Z,38.87
2023-04-27T11:59:29.292Z,38.84
2023-04-27T12:00:29.302Z,38.82
2023-04-27T12:01:37.770Z,38.81
2023-04-27T12:02:30.468Z,38.77
2023-04-27T12:03:29.526Z,38.75
2023-04-27T12:04:29.500Z,38.72
2023-04-27T12:05:29.550Z,38.68
2023-04-27T12:06:33.297Z,38.68
2023-04-27T12:07:29.312Z,38.67
2023-04-27T12:08:29.319Z,38.62
2023-04-27T12:09:29.305Z,38.60
2023-04-27T12:10:29.311Z,38.56
2023-04-27T12:11:29.262Z,38.54
2023-04-27T12:12:29.288Z,38.54
2023-04-27T12:13:29.285Z,38.51
2023-04-27T12:14:29.322Z,38.47
2023-04-27T12:15:29.254Z,38.48
2023-04-27T12:16:29.304Z,38.43
2023-04-27T12:17:29.275Z,38.41
2023-04-27T12:18:29.246Z,38.37
2023-04-27T12:19:29.274Z,38.36
2023-04-27T12:20:29.224Z,38.37
2023-04-27T12:21:29.215Z,38.34
2023-04-27T12:22:29.235Z,38.35
2023-04-27T12:23:29.222Z,38.34
2023-04-27T12:24:29.216Z,38.31
2023-04-27T12:25:29.297Z,38.26
2023-04-27T12:26:29.345Z,38.26
2023-04-27T12:27:29.402Z,38.23
2023-04-27T12:28:29.471Z,38.21
2023-04-27T12:29:29.539Z,38.24
2023-04-27T12:30:29.564Z,38.23
2023-04-27T12:31:29.705Z,38.19
2023-04-27T12:32:29.698Z,38.17
2023-04-27T12:33:29.760Z,38.13
2023-04-27T12:34:29.830Z,38.09
2023-04-27T12:35:29.881Z,38.07
2023-04-27T12:36:29.918Z,38.07
2023-04-27T12:37:30.005Z,38.02
2023-04-27T12:38:30.036Z,38.01
2023-04-27T12:39:30.130Z,37.99
2023-04-27T12:40:30.160Z,37.97
2023-04-27T12:41:30.216Z,37.95
2023-04-27T12:42:30.262Z,37.95
2023-04-27T12:43:30.362Z,37.92
2023-04-27T12:44:30.382Z,37.91
2023-04-27T12:45:30.454Z,37.86
2023-04-27T12:46:30.587Z,37.78
2023-04-27T12:48:30.620Z,37.73
2023-04-27T12:49:30.562Z,37.67
2023-04-27T12:50:30.582Z,37.64
2023-04-27T12:51:30.528Z,37.60
2023-04-27T12:52:30.549Z,37.55
2023-04-27T12:53:30.531Z,37.53
2023-04-27T12:54:30.514Z,37.52
2023-04-27T12:55:34.140Z,37.47